LEZG/ZAZ METAR and TAF weather

Enter ICAO airport designator
Station Type Date Time Source
LEZG METAR 2020/01/23 18:30 UTC NOAA

LEZG 231830Z 09006KT 9999 SCT020 OVC065 09/08 Q1021


Station Type Date Time Source
LEZG Decoded METAR 2020/01/23 18:30 UTC NOAA

Zaragoza / Aeropuerto, Spain (LEZG) 41-40N 001-01W 258M
Jan 23, 2020 - 01:30 PM EST / 2020.01.23 1830 UTC
Wind: from the E (090 degrees) at 7 MPH (6 KT):0
Visibility: greater than 7 mile(s):0
Sky conditions: overcast
Temperature: 48 F (9 C)
Dew Point: 46 F (8 C)
Relative Humidity: 93%
Pressure (altimeter): 30.15 in. Hg (1021 hPa)
ob: LEZG 231830Z 09006KT 9999 SCT020 OVC065 09/08 Q1021
cycle: 18

Station Type Date Time Source
LEZG TAF 2020/01/23 18:27 UTC NOAA

TAF LEZG 231700Z 2318/2418 13006KT 9999 BKN020 TX11/2413Z TN02/2406Z
TEMPO 2322/2412 3000 BR BKN005 PROB40 2402/2408 0500 BCFG VV002

Example: see airport list